Time;durP1;ratioP1;P1;durP2;ratioP2;P2;SDS_P1;SDS_P2;PMS_P1;PMS_P2;Temp;Humidity;BMP_temperature;BMP_pressure;BME280_temperature;BME280_humidity;BME280_pressure;Samples;Min_cycle;Max_cycle;Signal;HPM_P1;HPM_P2
2023/01/28 02:34:59;;;;;;;36.50;23.10;;;;;;;-0.96;76.89;99736.83;105117;1283;614037;-41
2023/01/28 02:37:38;;;;;;;33.60;21.20;;;;;;;-0.62;75.06;99734.54;106616;1264;194400;-41
2023/01/28 02:40:12;;;;;;;34.70;20.80;;;;;;;-0.77;75.62;99736.55;106841;1264;60530;-40
2023/01/28 02:42:40;;;;;;;35.10;20.80;;;;;;;-0.77;75.48;99744.48;106830;1264;71934;-40
2023/01/28 02:45:18;;;;;;;35.90;21.70;;;;;;;-0.72;75.31;99744.83;106735;1264;69628;-40
2023/01/28 02:47:58;;;;;;;35.60;21.80;;;;;;;-0.67;75.15;99748.58;106748;1264;73871;-40
2023/01/28 02:50:38;;;;;;;36.40;22.20;;;;;;;-0.66;75.13;99744.36;106733;1264;60736;-40
2023/01/28 02:56:37;;;;;;;40.30;21.60;;;;;;;-0.82;74.06;99737.97;106721;1266;73221;-41
2023/01/28 02:59:35;;;;;;;35.90;20.50;;;;;;;-0.97;74.10;99742.73;106682;1268;69952;-40
2023/01/28 03:02:43;;;;;;;35.70;20.30;;;;;;;-0.95;74.01;99746.81;106678;1263;73501;-40
2023/01/28 03:05:32;;;;;;;35.60;20.60;;;;;;;-0.99;74.14;99743.96;106701;1264;60647;-41
2023/01/28 03:09:21;;;;;;;37.20;21.40;;;;;;;-1.03;74.44;99748.61;106626;1263;59612;-41
2023/01/28 03:36:49;;;;;;;37.60;20.70;;;;;;;-0.60;73.98;99736.16;106852;1266;60250;-40
2023/01/28 03:39:32;;;;;;;35.50;21.30;;;;;;;-0.54;73.53;99733.73;106740;1267;72671;-41
2023/01/28 03:42:06;;;;;;;39.70;20.80;;;;;;;-0.59;73.41;99730.77;106840;1264;69113;-40
2023/01/28 03:44:52;;;;;;;37.50;21.30;;;;;;;-0.61;73.51;99735.80;106785;1266;74296;-40
2023/01/28 03:47:26;;;;;;;34.80;20.90;;;;;;;-0.62;73.15;99737.03;106875;1265;59537;-40
2023/01/28 03:49:56;;;;;;;31.80;19.20;;;;;;;-0.65;73.14;99738.13;106817;1264;60398;-40
2023/01/28 03:52:29;;;;;;;38.60;19.20;;;;;;;-0.67;73.07;99742.19;106763;1267;73968;-40
2023/01/28 03:55:12;;;;;;;27.30;17.20;;;;;;;-0.62;72.84;99744.28;106803;1266;68616;-40
2023/01/28 03:57:43;;;;;;;29.00;17.00;;;;;;;-0.58;72.36;99742.38;106770;1266;73772;-40
2023/01/28 04:00:16;;;;;;;26.80;16.10;;;;;;;-0.60;72.19;99744.32;106772;1265;59649;-40
2023/01/28 04:02:45;;;;;;;29.80;18.00;;;;;;;-0.62;72.16;99749.98;106699;1266;61493;-40
2023/01/28 04:05:19;;;;;;;27.20;16.40;;;;;;;-0.64;71.78;99747.39;106771;1267;73958;-40
2023/01/28 04:07:50;;;;;;;25.90;15.90;;;;;;;-0.66;71.67;99750.80;106783;1268;69968;-40
2023/01/28 04:10:39;;;;;;;;;;;;;;;-0.70;71.66;99751.84;106668;1267;73792;-40
2023/01/28 04:13:18;;;;;;;26.50;16.80;;;;;;;-0.80;71.76;99749.55;106613;1269;60576;-40
2023/01/28 04:15:47;;;;;;;26.10;15.40;;;;;;;-0.88;71.81;99745.62;106774;1263;61233;-41
2023/01/28 04:18:18;;;;;;;24.60;14.80;;;;;;;-0.85;71.40;99745.11;107002;1263;74022;-40
2023/01/28 04:20:49;;;;;;;24.70;15.80;;;;;;;-0.85;71.39;99745.00;106898;1263;68546;-40
2023/01/28 04:23:18;;;;;;;23.90;15.40;;;;;;;-0.86;71.66;99749.70;107006;1263;72400;-40
2023/01/28 04:25:49;;;;;;;28.30;17.10;;;;;;;-0.86;71.72;99752.41;106852;1263;60769;-40
2023/01/28 04:28:17;;;;;;;28.20;16.50;;;;;;;-0.88;71.58;99757.16;107013;1262;60062;-40
2023/01/28 04:30:46;;;;;;;28.20;16.40;;;;;;;-0.94;71.39;99756.34;106992;1263;74259;-40
2023/01/28 04:33:31;;;;;;;28.00;16.10;;;;;;;-1.00;71.62;99757.05;107000;1263;69355;-41
2023/01/28 04:36:23;;;;;;;25.10;14.90;;;;;;;-1.06;71.58;99752.98;106806;1264;73563;-41
2023/01/28 04:39:30;;;;;;;26.40;15.70;;;;;;;-1.07;71.47;99753.31;106644;1267;62301;-40
2023/01/28 04:42:20;;;;;;;26.20;15.20;;;;;;;-1.08;71.61;99752.84;106568;1267;61110;-41
2023/01/28 04:45:10;;;;;;;27.80;16.50;;;;;;;-1.07;71.82;99753.73;104541;1262;1003565;-40
2023/01/28 04:47:49;;;;;;;26.50;15.80;;;;;;;-1.05;71.94;99759.32;106903;1264;69609;-40
2023/01/28 04:50:46;;;;;;;24.80;15.00;;;;;;;-1.03;71.95;99765.16;106668;1263;72722;-41
2023/01/28 04:53:21;;;;;;;26.90;15.90;;;;;;;-1.04;71.78;99765.38;106854;1263;60670;-41
2023/01/28 04:56:00;;;;;;;;;;;;;;;-1.09;71.57;99766.52;106896;1263;61307;-40
2023/01/28 04:58:32;;;;;;;23.30;13.90;;;;;;;-1.25;71.74;99748.87;106879;1264;72906;-40
2023/01/28 05:01:07;;;;;;;24.00;14.50;;;;;;;-1.11;71.84;99764.14;106876;1262;68756;-40
2023/01/28 05:03:36;;;;;;;26.30;15.80;;;;;;;-1.04;71.70;99764.16;106873;1262;72905;-41
2023/01/28 05:06:06;;;;;;;25.70;15.10;;;;;;;-1.03;71.71;99767.17;107007;1263;60601;-40
2023/01/28 05:08:41;;;;;;;24.80;15.80;;;;;;;-1.03;71.58;99767.66;106993;1261;59765;-41
2023/01/28 05:11:10;;;;;;;26.80;15.80;;;;;;;-1.05;71.56;99771.55;106903;1266;73995;-41
2023/01/28 05:13:39;;;;;;;26.10;16.60;;;;;;;-1.09;71.63;99771.25;107064;1263;69639;-40
2023/01/28 05:16:09;;;;;;;25.00;15.40;;;;;;;-1.11;71.82;99772.06;107006;1263;73945;-40
2023/01/28 05:18:38;;;;;;;28.40;15.60;;;;;;;-1.11;71.83;99772.64;107031;1261;60402;-40
2023/01/28 05:21:14;;;;;;;23.20;15.00;;;;;;;-1.10;71.45;99776.67;106896;1264;61198;-41
2023/01/28 05:23:46;;;;;;;26.70;15.10;;;;;;;-1.12;71.58;99773.23;106860;1262;73819;-40
2023/01/28 05:26:14;;;;;;;25.70;15.40;;;;;;;-1.13;71.98;99776.81;106784;1263;69667;-40
2023/01/28 05:28:44;;;;;;;26.20;16.10;;;;;;;-1.11;71.95;99773.92;106860;1261;71778;-41
2023/01/28 05:31:13;;;;;;;25.10;15.30;;;;;;;-1.11;71.95;99774.19;106944;1264;60767;-40
2023/01/28 05:33:41;;;;;;;24.50;15.50;;;;;;;-1.09;71.83;99769.29;106910;1263;61485;-41
2023/01/28 05:36:12;;;;;;;27.80;15.10;;;;;;;-1.07;71.83;99770.65;106974;1262;74142;-41
2023/01/28 05:38:41;;;;;;;26.10;15.30;;;;;;;-1.07;71.87;99771.77;106984;1264;70093;-40
2023/01/28 10:32:35;;;;;;;27.10;18.90;;;;;;;-0.19;68.80;99690.55;104980;1283;613828;-38
2023/01/28 10:35:04;;;;;;;22.30;14.40;;;;;;;0.13;67.14;99689.61;106594;1268;193755;-38
2023/01/28 10:37:34;;;;;;;28.20;18.00;;;;;;;-0.05;66.94;99689.54;106945;1261;60345;-38
2023/01/28 10:40:03;;;;;;;28.30;17.10;;;;;;;-0.18;66.58;99683.90;106831;1262;71092;-38
2023/01/28 10:42:37;;;;;;;21.70;13.50;;;;;;;-0.23;66.98;99686.13;107004;1261;68528;-38
2023/01/28 10:45:22;;;;;;;27.50;17.30;;;;;;;-0.23;66.90;99677.87;106941;1264;73571;-38
2023/01/28 10:48:00;;;;;;;27.30;16.60;;;;;;;-0.28;66.90;99671.52;106951;1263;60805;-38
2023/01/28 10:50:29;;;;;;;28.10;17.30;;;;;;;-0.34;66.94;99680.11;106976;1261;61676;-38
2023/01/28 10:52:59;;;;;;;26.20;16.80;;;;;;;-0.38;67.07;99680.30;106978;1262;73283;-38
2023/01/28 10:55:53;;;;;;;25.80;16.20;;;;;;;-0.46;66.74;99680.42;106894;1261;69922;-38
2023/01/28 10:58:28;;;;;;;27.10;16.60;;;;;;;-0.60;66.57;99683.07;106866;1264;73177;-39
2023/01/28 11:00:59;;;;;;;26.80;16.60;;;;;;;-0.74;66.69;99682.70;106144;1264;1002900;-38
2023/01/28 11:03:28;;;;;;;30.20;17.50;;;;;;;-0.85;66.56;99685.29;107032;1264;62460;-38
2023/01/28 11:05:57;;;;;;;26.20;16.30;;;;;;;-0.97;66.92;99684.08;107061;1265;74231;-38
2023/01/28 11:08:27;;;;;;;25.20;15.90;;;;;;;-1.03;67.06;99689.28;106941;1265;68474;-38
2023/01/28 11:10:55;;;;;;;26.20;16.80;;;;;;;-1.05;67.28;99684.08;106932;1263;73202;-38
2023/01/28 11:13:28;;;;;;;24.60;16.10;;;;;;;-1.05;67.30;99679.65;107015;1264;59484;-38
2023/01/28 11:16:05;;;;;;;28.40;17.30;;;;;;;-1.10;67.15;99679.95;107030;1263;60345;-38
2023/01/28 11:18:45;;;;;;;26.20;17.00;;;;;;;-1.16;67.67;99676.69;107035;1263;74180;-38
2023/01/28 11:21:17;;;;;;;28.50;17.60;;;;;;;-1.18;67.79;99673.02;107038;1264;69962;-38
2023/01/28 11:23:53;;;;;;;29.70;17.40;;;;;;;-1.19;68.00;99672.92;106987;1266;73889;-38
2023/01/28 11:26:27;;;;;;;26.70;17.40;;;;;;;-1.17;68.10;99671.64;106981;1261;62208;-38
2023/01/28 11:28:56;;;;;;;25.00;16.90;;;;;;;-1.08;68.07;99667.96;107020;1262;61486;-38
2023/01/28 11:31:25;;;;;;;29.90;17.40;;;;;;;-1.03;67.99;99661.80;107022;1264;74297;-38
2023/01/28 11:33:58;;;;;;;32.20;19.30;;;;;;;-1.00;67.89;99661.10;107035;1265;68414;-37
2023/01/28 11:36:29;;;;;;;31.40;19.00;;;;;;;-0.97;67.58;99658.20;106879;1266;72755;-37
2023/01/28 11:39:00;;;;;;;33.40;18.70;;;;;;;-1.03;67.60;99656.34;107013;1263;59900;-37
2023/01/28 11:41:31;;;;;;;31.40;18.40;;;;;;;-1.05;67.63;99646.98;106866;1262;61436;-37
2023/01/28 11:44:09;;;;;;;28.90;17.60;;;;;;;-1.09;67.44;99647.05;106886;1263;73308;-37
2023/01/28 11:46:57;;;;;;;30.60;18.70;;;;;;;-1.14;67.68;99654.22;107017;1264;69955;-39
2023/01/28 11:49:51;;;;;;;29.40;17.70;;;;;;;-1.23;67.82;99643.36;107279;1257;72845;-37
2023/01/28 11:52:31;;;;;;;29.70;18.60;;;;;;;-1.20;68.08;99647.08;107221;1257;62245;-37
2023/01/28 11:55:49;;;;;;;31.70;19.20;;;;;;;-1.18;68.50;99645.15;107257;1257;61278;-37
2023/01/28 11:58:25;;;;;;;29.70;18.10;;;;;;;-1.14;68.65;99652.58;107290;1257;74202;-37
2023/01/28 12:01:20;;;;;;;30.00;18.80;;;;;;;-1.09;68.39;99645.09;107340;1256;68780;-37
2023/01/28 12:04:07;;;;;;;30.20;17.70;;;;;;;-1.05;67.92;99643.64;107321;1258;72196;-38
2023/01/28 12:06:46;;;;;;;28.20;17.60;;;;;;;-1.07;67.30;99634.97;107225;1257;60831;-37
2023/01/28 12:09:57;;;;;;;34.20;19.00;;;;;;;-1.09;67.09;99635.88;107282;1261;61693;-37
2023/01/28 12:12:54;;;;;;;31.10;18.50;;;;;;;-1.17;67.15;99630.25;107302;1257;74212;-37
2023/01/28 12:15:36;;;;;;;28.70;17.50;;;;;;;-1.12;67.55;99637.81;107325;1257;67068;-38
2023/01/28 12:18:16;;;;;;;27.30;16.80;;;;;;;-1.10;67.25;99636.00;107313;1261;73882;-37
2023/01/28 12:21:07;;;;;;;29.40;17.30;;;;;;;-0.96;67.26;99633.68;107306;1257;59713;-37
2023/01/28 12:23:40;;;;;;;29.50;17.00;;;;;;;-0.83;66.87;99634.70;107280;1260;61621;-37
2023/01/28 12:26:16;;;;;;;24.00;15.90;;;;;;;-0.68;66.34;99630.33;107285;1261;74208;-37
2023/01/28 12:29:14;;;;;;;26.10;17.10;;;;;;;-0.48;65.11;99621.63;107285;1257;69856;-38
2023/01/28 12:32:14;;;;;;;25.70;16.10;;;;;;;-0.29;64.69;99624.92;107205;1257;73832;-38
2023/01/28 12:35:06;;;;;;;25.90;15.80;;;;;;;0.12;63.92;99620.27;107264;1257;60587;-38
2023/01/28 12:37:47;;;;;;;29.10;16.20;;;;;;;0.53;62.41;99618.86;107279;1257;61402;-38
2023/01/28 12:40:37;;;;;;;26.40;16.00;;;;;;;0.78;61.04;99617.08;107281;1263;73604;-38
2023/01/28 12:43:09;;;;;;;27.50;16.80;;;;;;;0.88;60.15;99614.48;107264;1257;69906;-38
2023/01/28 12:45:40;;;;;;;29.00;15.70;;;;;;;0.87;59.95;99614.30;107261;1263;71940;-38
2023/01/28 12:48:28;;;;;;;25.60;15.90;;;;;;;0.82;60.20;99611.15;107348;1262;60677;-38
2023/01/28 12:51:07;;;;;;;26.10;16.40;;;;;;;0.75;59.96;99617.05;107246;1263;61608;-38
2023/01/28 12:53:46;;;;;;;22.90;14.80;;;;;;;0.54;59.93;99615.27;107064;1258;74145;-38
2023/01/28 12:56:17;;;;;;;27.70;16.20;;;;;;;0.41;60.54;99614.05;107299;1262;67481;-38
2023/01/28 12:58:56;;;;;;;27.00;15.60;;;;;;;0.33;60.54;99619.49;107245;1261;73882;-38
2023/01/28 13:02:10;;;;;;;26.20;15.80;;;;;;;0.30;60.71;99616.26;107256;1262;59666;-38
2023/01/28 13:04:48;;;;;;;27.00;16.90;;;;;;;0.29;60.77;99619.11;107105;1256;61475;-38
2023/01/28 13:07:27;;;;;;;27.10;16.50;;;;;;;0.17;60.84;99620.37;107257;1263;74136;-38
2023/01/28 13:10:03;;;;;;;26.30;15.80;;;;;;;0.02;60.90;99621.60;106518;1257;1003141;-38
2023/01/28 13:12:32;;;;;;;28.90;16.90;;;;;;;-0.04;61.81;99622.80;107059;1262;73872;-39
2023/01/28 13:15:05;;;;;;;28.40;17.10;;;;;;;-0.05;61.62;99622.31;107237;1257;60464;-37
2023/01/28 13:17:34;;;;;;;;;;;;;;;-0.11;61.71;99623.61;107331;1261;60024;-37
2023/01/28 13:20:13;;;;;;;31.30;17.70;;;;;;;-0.20;61.88;99621.30;107292;1257;74116;-38
2023/01/28 13:22:43;;;;;;;22.40;13.60;;;;;;;-0.31;62.06;99625.84;107295;1257;69884;-38
2023/01/28 13:25:34;;;;;;;26.30;16.50;;;;;;;-0.38;62.52;99630.06;107041;1261;74045;-38
2023/01/28 13:28:04;;;;;;;28.40;16.50;;;;;;;-0.30;62.57;99630.41;107178;1263;60806;-37
2023/01/28 13:30:46;;;;;;;26.10;16.90;;;;;;;-0.22;62.87;99629.11;107294;1261;61270;-38
2023/01/28 13:33:37;;;;;;;30.80;17.70;;;;;;;-0.11;62.86;99628.46;107356;1262;72092;-38
2023/01/28 13:36:30;;;;;;;31.30;17.90;;;;;;;0.00;62.73;99625.89;107260;1258;69448;-38
2023/01/28 13:39:19;;;;;;;27.00;16.60;;;;;;;0.08;62.48;99630.54;107260;1257;74024;-38
2023/01/28 13:41:48;;;;;;;26.40;16.00;;;;;;;0.15;62.34;99630.10;107281;1262;60045;-38
2023/01/28 18:24:02;;;;;;;38.10;23.20;;;;;;;-0.21;69.12;99682.15;104987;1283;614111;-38
2023/01/28 18:26:30;;;;;;;41.10;24.20;;;;;;;0.28;67.58;99683.87;106425;1266;275192;-38
2023/01/28 18:28:59;;;;;;;39.60;23.20;;;;;;;0.21;67.42;99684.41;106613;1265;61578;-38
2023/01/28 18:31:28;;;;;;;38.00;22.20;;;;;;;0.19;67.23;99688.80;106747;1265;73457;-39
2023/01/28 18:33:56;;;;;;;35.10;21.30;;;;;;;0.20;66.91;99695.58;106764;1266;70371;-39
2023/01/28 18:36:25;;;;;;;34.50;20.20;;;;;;;0.20;66.82;99698.02;106708;1270;73657;-38
2023/01/28 18:38:55;;;;;;;34.60;18.50;;;;;;;0.20;66.58;99698.67;106735;1266;59283;-38
2023/01/28 18:41:23;;;;;;;35.70;19.10;;;;;;;0.22;66.26;99701.04;106708;1266;60554;-39
2023/01/28 18:43:52;;;;;;;38.20;20.40;;;;;;;0.28;66.04;99704.87;106732;1266;73430;-39
2023/01/28 18:46:20;;;;;;;34.40;20.50;;;;;;;0.29;66.04;99699.67;106678;1266;69942;-39
2023/01/28 18:48:49;;;;;;;35.20;20.70;;;;;;;0.30;65.99;99698.66;106851;1262;73867;-39
2023/01/28 18:51:17;;;;;;;34.90;20.30;;;;;;;0.32;65.70;99704.25;106829;1262;61150;-38
2023/01/28 18:53:58;;;;;;;38.60;21.60;;;;;;;0.34;65.83;99700.42;107070;1257;60554;-39
2023/01/28 18:56:27;;;;;;;37.90;22.70;;;;;;;0.34;65.52;99700.48;107042;1261;72654;-39
2023/01/28 18:59:00;;;;;;;48.00;24.40;;;;;;;0.33;65.62;99702.25;107051;1258;69911;-39
2023/01/28 19:01:30;;;;;;;40.00;22.10;;;;;;;0.32;65.47;99704.98;107047;1258;73887;-39
2023/01/28 19:03:59;;;;;;;46.70;24.70;;;;;;;0.29;65.31;99701.50;107099;1258;60748;-39
2023/01/28 19:06:28;;;;;;;32.10;17.00;;;;;;;0.25;65.49;99698.28;107145;1258;60664;-39
2023/01/28 19:08:59;;;;;;;44.60;23.40;;;;;;;0.23;65.64;99693.88;107110;1261;74182;-39
2023/01/28 19:11:28;;;;;;;47.80;25.60;;;;;;;0.20;65.48;99694.98;107070;1259;70004;-39
2023/01/28 19:13:58;;;;;;;42.40;23.30;;;;;;;0.17;65.43;99688.52;107389;1256;73887;-39
2023/01/28 19:16:27;;;;;;;38.70;21.80;;;;;;;0.14;65.54;99692.05;107365;1258;60302;-39
2023/01/28 19:18:57;;;;;;;35.10;20.20;;;;;;;0.13;65.59;99692.39;107429;1255;60553;-39
2023/01/28 19:21:27;;;;;;;33.60;19.00;;;;;;;0.17;65.56;99691.44;107372;1258;74469;-39
2023/01/28 19:23:57;;;;;;;34.20;18.50;;;;;;;0.26;65.41;99686.55;107333;1255;68964;-39
2023/01/28 19:26:26;;;;;;;39.40;19.90;;;;;;;0.30;65.45;99690.55;107312;1255;73664;-38
2023/01/28 19:28:55;;;;;;;40.40;20.00;;;;;;;0.33;65.35;99690.85;107427;1256;59470;-39
2023/01/28 19:31:24;;;;;;;23.70;13.50;;;;;;;0.36;65.17;99688.67;107404;1256;61513;-39
2023/01/28 19:33:57;;;;;;;26.20;13.50;;;;;;;0.39;65.24;99693.92;107414;1257;74222;-39
2023/01/28 19:36:28;;;;;;;30.80;16.90;;;;;;;0.40;65.11;99696.63;107407;1256;68503;-39
2023/01/28 19:39:07;;;;;;;31.40;16.90;;;;;;;0.38;65.14;99694.09;107454;1255;70575;-39
2023/01/28 19:41:36;;;;;;;33.10;16.50;;;;;;;0.38;65.07;99695.91;107365;1256;60827;-39
2023/01/28 19:44:04;;;;;;;28.50;15.40;;;;;;;0.37;65.05;99696.19;107487;1258;60355;-39
2023/01/28 19:46:34;;;;;;;21.90;11.40;;;;;;;0.36;65.09;99697.37;107465;1258;74220;-39
2023/01/28 19:49:05;;;;;;;27.20;14.90;;;;;;;0.34;65.05;99697.92;107453;1256;67771;-38
2023/01/28 19:51:34;;;;;;;24.50;14.60;;;;;;;0.31;65.02;99698.97;107280;1256;73846;-39
2023/01/28 19:54:02;;;;;;;22.50;13.00;;;;;;;0.27;65.13;99696.94;107297;1256;60472;-38
2023/01/28 19:56:34;;;;;;;21.80;13.20;;;;;;;0.21;65.33;99693.11;107293;1256;61551;-38
2023/01/28 19:59:03;;;;;;;22.10;12.60;;;;;;;0.16;65.34;99694.27;107369;1254;74009;-38
2023/01/28 20:01:34;;;;;;;20.70;11.70;;;;;;;0.20;65.41;99695.36;107333;1258;69963;-39
2023/01/28 20:04:03;;;;;;;24.30;11.60;;;;;;;0.28;65.42;99697.02;107278;1256;72460;-38
2023/01/28 20:06:32;;;;;;;23.70;12.00;;;;;;;0.31;65.52;99695.83;107303;1254;60471;-38
2023/01/28 20:09:07;;;;;;;21.80;11.40;;;;;;;0.33;65.59;99698.68;107335;1255;61378;-38
2023/01/28 20:11:36;;;;;;;19.00;10.80;;;;;;;0.33;65.11;99698.63;107337;1256;74684;-39
2023/01/28 20:14:04;;;;;;;20.60;11.30;;;;;;;0.30;65.18;99700.15;107343;1255;69851;-39
2023/01/28 20:16:33;;;;;;;20.40;11.90;;;;;;;0.27;65.18;99699.85;107379;1258;73867;-39
2023/01/28 20:19:04;;;;;;;16.90;10.10;;;;;;;0.26;65.07;99701.53;107439;1257;60860;-39
2023/01/28 20:21:34;;;;;;;19.40;10.80;;;;;;;0.24;65.26;99699.01;106629;1256;1003497;-39
2023/01/28 20:24:03;;;;;;;13.20;6.70;;;;;;;0.22;65.21;99696.30;107406;1254;74238;-39
2023/01/28 20:26:34;;;;;;;16.50;9.40;;;;;;;0.20;65.21;99696.65;107369;1257;68072;-39
2023/01/28 20:29:07;;;;;;;16.20;9.60;;;;;;;0.16;65.29;99696.36;107403;1254;73877;-38
2023/01/28 20:31:40;;;;;;;15.30;9.80;;;;;;;0.10;64.99;99696.21;107289;1254;60712;-39
2023/01/28 20:34:13;;;;;;;18.20;9.80;;;;;;;0.04;65.24;99693.77;107278;1254;61437;-39
2023/01/28 20:36:41;;;;;;;18.20;10.70;;;;;;;0.02;65.28;99697.41;107340;1256;72673;-39
2023/01/28 20:39:11;;;;;;;17.80;10.70;;;;;;;0.01;65.55;99692.26;107356;1258;68942;-39
2023/01/28 20:41:39;;;;;;;15.90;9.70;;;;;;;0.05;65.34;99691.56;107370;1256;72251;-39
2023/01/28 20:44:07;;;;;;;16.40;10.00;;;;;;;0.13;65.33;99695.75;107350;1255;61226;-40
2023/01/28 20:46:37;;;;;;;16.80;10.40;;;;;;;0.16;65.09;99692.79;107333;1255;61640;-40
2023/01/28 20:49:06;;;;;;;;;;;;;;;0.18;65.09;99690.48;107324;1257;75273;-38
2023/01/28 20:51:35;;;;;;;17.70;10.10;;;;;;;0.15;65.35;99690.92;107318;1256;69892;-41
2023/01/28 20:54:03;;;;;;;17.70;10.30;;;;;;;0.13;65.33;99690.67;107330;1256;73837;-38
2023/01/28 20:56:32;;;;;;;17.90;10.50;;;;;;;0.17;65.35;99688.73;107309;1255;60614;-38
2023/01/28 20:59:02;;;;;;;16.60;10.50;;;;;;;0.20;65.13;99691.25;107393;1254;61693;-38
2023/01/28 21:01:33;;;;;;;19.30;11.20;;;;;;;0.22;64.98;99688.52;107416;1255;72526;-38
2023/01/28 21:04:03;;;;;;;18.50;10.70;;;;;;;0.20;64.79;99694.44;107390;1255;69918;-38
2023/01/28 21:06:32;;;;;;;;;;;;;;;0.18;64.52;99696.72;107438;1254;73948;-39
2023/01/28 21:09:01;;;;;;;18.20;10.40;;;;;;;0.10;64.76;99695.58;107404;1256;60796;-39
2023/01/28 21:11:30;;;;;;;18.00;11.10;;;;;;;-0.00;64.87;99693.64;107410;1254;59510;-39
2023/01/28 21:13:58;;;;;;;20.30;11.90;;;;;;;-0.04;64.86;99691.91;107386;1254;73916;-39
2023/01/28 21:16:27;;;;;;;20.50;12.10;;;;;;;-0.07;64.95;99695.26;107419;1256;69934;-39
2023/01/28 21:18:56;;;;;;;20.60;12.20;;;;;;;-0.12;64.84;99700.48;107391;1256;73842;-39
2023/01/28 21:21:25;;;;;;;20.40;10.50;;;;;;;-0.17;65.01;99703.18;107414;1258;60810;-39
2023/01/28 21:23:56;;;;;;;18.80;11.00;;;;;;;-0.22;65.15;99699.66;107419;1255;61339;-39
2023/01/28 21:26:25;;;;;;;16.60;10.20;;;;;;;-0.22;65.14;99702.48;107356;1256;71412;-39
2023/01/28 21:28:55;;;;;;;20.20;11.00;;;;;;;-0.16;65.14;99704.66;107369;1254;69963;-39
2023/01/28 21:31:24;;;;;;;21.20;12.10;;;;;;;-0.13;64.99;99700.27;107345;1254;73177;-39
2023/01/28 21:33:56;;;;;;;21.00;12.90;;;;;;;-0.16;64.92;99705.20;107367;1256;59635;-38
2023/01/28 21:36:25;;;;;;;17.60;10.80;;;;;;;-0.17;65.07;99705.42;107329;1255;61204;-39
2023/01/28 21:38:55;;;;;;;17.20;10.70;;;;;;;-0.19;65.14;99707.77;107389;1256;74262;-39
2023/01/28 21:41:24;;;;;;;18.50;10.10;;;;;;;-0.22;64.91;99707.66;107429;1258;69963;-39
2023/01/28 21:43:53;;;;;;;19.20;11.00;;;;;;;-0.27;64.92;99709.66;107383;1256;73897;-39
2023/01/28 21:46:23;;;;;;;12.10;7.00;;;;;;;-0.32;65.00;99708.54;107381;1256;60752;-39
2023/01/28 21:49:00;;;;;;;14.90;8.60;;;;;;;-0.40;65.00;99708.45;107376;1256;60401;-38
